Time;durP1;ratioP1;P1;durP2;ratioP2;P2;SDS_P1;SDS_P2;PMS_P1;PMS_P2;Temp;Humidity;BMP_temperature;BMP_pressure;BME280_temperature;BME280_humidity;BME280_pressure;Samples;Min_cycle;Max_cycle;Signal;HPM_P1;HPM_P2
2023/10/04 00:02:54;;;;;;;8.68;6.18;;;;;;;23.34;51.74;100641.59;41346863;28;20049;-73
2023/10/04 00:22:54;;;;;;;8.65;5.50;;;;;;;23.53;51.72;100673.59;41334099;28;20046;-72
2023/10/04 00:43:13;;;;;;;9.70;5.70;;;;;;;23.30;51.81;100666.59;41326201;28;20065;-75
2023/10/04 01:03:20;;;;;;;9.85;5.60;;;;;;;23.37;51.59;100697.81;41372639;28;20038;-75
2023/10/04 01:23:21;;;;;;;11.40;6.35;;;;;;;23.32;51.85;100682.31;41381287;28;20046;-74
2023/10/04 01:43:24;;;;;;;9.55;6.13;;;;;;;23.47;51.31;100710.13;41376317;28;20049;-75
2023/10/04 02:03:25;;;;;;;8.13;5.47;;;;;;;23.41;51.44;100737.06;41388153;28;20050;-75
2023/10/04 02:23:27;;;;;;;10.90;5.60;;;;;;;23.34;51.03;100746.47;41370157;28;20312;-75
2023/10/04 02:43:28;;;;;;;8.05;5.72;;;;;;;23.15;50.66;100737.31;41375617;28;20045;-76
2023/10/04 03:03:30;;;;;;;8.07;5.90;;;;;;;23.10;50.81;100775.66;41351606;28;20503;-75
2023/10/04 03:23:34;;;;;;;8.32;5.22;;;;;;;23.29;50.73;100828.72;41369123;28;20123;-74
2023/10/04 03:43:35;;;;;;;7.70;4.97;;;;;;;23.30;50.80;100861.25;41380079;28;20153;-74
2023/10/04 04:03:44;;;;;;;6.90;4.70;;;;;;;23.05;50.45;100833.28;41376333;28;20288;-79
2023/10/04 04:23:44;;;;;;;8.65;4.00;;;;;;;23.28;50.00;100869.31;41365348;28;20100;-73
2023/10/04 04:43:45;;;;;;;10.38;4.75;;;;;;;23.63;50.62;100912.41;41388363;28;20054;-73
2023/10/04 05:03:45;;;;;;;14.40;4.45;;;;;;;23.60;50.42;100942.56;41387744;28;20043;-75
2023/10/04 05:23:46;;;;;;;15.00;3.55;;;;;;;23.32;49.66;100987.00;41356757;28;20091;-76
2023/10/04 05:43:49;;;;;;;9.45;4.28;;;;;;;22.89;49.12;100952.44;41355370;28;20137;-84
2023/10/04 06:03:49;;;;;;;11.10;2.50;;;;;;;22.82;48.33;100994.31;41381089;28;20507;-83
2023/10/04 06:23:50;;;;;;;9.30;2.45;;;;;;;23.18;45.01;101098.22;41384955;28;20073;-75
2023/10/04 06:43:50;;;;;;;8.20;2.60;;;;;;;23.13;46.48;101077.38;41382863;28;20038;-80
2023/10/04 07:03:51;;;;;;;7.35;2.58;;;;;;;23.26;47.20;101130.16;41377174;28;20085;-79
2023/10/04 07:23:51;;;;;;;6.35;2.45;;;;;;;23.18;47.33;101114.91;41360564;28;20045;-79
2023/10/04 07:43:53;;;;;;;6.88;2.53;;;;;;;23.46;47.66;101143.69;41376219;28;20038;-78
2023/10/04 08:03:55;;;;;;;16.52;3.28;;;;;;;23.34;47.23;101161.31;41358350;28;20414;-79
2023/10/04 08:23:57;;;;;;;5.28;2.15;;;;;;;22.24;43.70;101192.84;41392984;28;20093;-75
2023/10/04 08:43:58;;;;;;;9.23;2.40;;;;;;;22.94;44.88;101135.19;41376521;28;20104;-76
2023/10/04 09:04:01;;;;;;;4.85;2.40;;;;;;;23.49;47.52;101215.66;41412981;28;20511;-76
2023/10/04 09:24:12;;;;;;;9.77;3.20;;;;;;;23.61;48.42;101234.25;41419199;28;20076;-78
2023/10/04 09:44:20;;;;;;;4.88;2.65;;;;;;;23.64;48.84;101196.97;41403137;28;20042;-73
2023/10/04 10:04:25;;;;;;;8.15;2.70;;;;;;;23.85;49.34;101210.38;41424623;28;20047;-77
2023/10/04 10:24:25;;;;;;;;;;;;;;;23.79;42.25;101247.84;41420756;28;20042;-74
2023/10/04 10:44:33;;;;;;;7.15;2.05;;;;;;;23.68;39.92;101238.13;41417440;28;19925;-78
2023/10/04 11:04:34;;;;;;;11.63;3.30;;;;;;;24.39;43.54;101255.72;41417414;28;20046;-74
2023/10/04 11:24:36;;;;;;;10.02;3.58;;;;;;;24.46;46.21;101244.53;41411405;28;20058;-70
2023/10/04 11:44:41;;;;;;;12.07;4.15;;;;;;;24.94;46.86;101248.75;41384556;28;20484;-74
2023/10/04 12:04:42;;;;;;;6.88;3.55;;;;;;;25.12;46.84;101223.53;41389580;28;20039;-75
2023/10/04 12:24:45;;;;;;;15.82;5.45;;;;;;;24.66;47.37;101202.44;41400362;28;20061;-78
2023/10/04 12:44:45;;;;;;;15.75;5.57;;;;;;;24.39;48.45;101208.06;41396981;28;20054;-75
2023/10/04 13:04:49;;;;;;;8.70;5.30;;;;;;;24.33;48.64;101197.97;41406755;28;20113;-76
2023/10/04 13:24:56;;;;;;;8.18;5.28;;;;;;;24.39;48.58;101232.75;41417505;28;20058;-74
2023/10/04 13:44:57;;;;;;;21.73;5.80;;;;;;;24.30;48.38;101230.81;41429777;28;20090;-82
2023/10/04 14:04:59;;;;;;;226.20;16.92;;;;;;;24.37;49.08;101245.25;41423023;28;20096;-86
2023/10/04 14:25:02;;;;;;;183.70;15.20;;;;;;;24.26;49.46;101277.84;41418757;28;20145;-79
2023/10/04 14:45:04;;;;;;;69.55;8.80;;;;;;;24.17;49.44;101261.81;41384662;28;20065;-78
2023/10/04 15:05:05;;;;;;;36.67;6.55;;;;;;;23.91;48.94;101220.50;41368333;28;20053;-78
2023/10/04 15:25:14;;;;;;;25.67;6.28;;;;;;;23.85;49.22;101241.28;41337503;28;20046;-75
2023/10/04 15:45:16;;;;;;;18.25;2.85;;;;;;;23.34;39.73;101265.22;41321885;28;20426;-74
2023/10/04 16:05:17;;;;;;;118.90;9.43;;;;;;;23.74;42.48;101276.47;41361983;28;20464;-75
2023/10/04 16:25:17;;;;;;;27.05;4.97;;;;;;;23.85;45.57;101286.25;41347449;28;20084;-73
2023/10/04 16:45:19;;;;;;;26.40;4.85;;;;;;;24.19;47.43;101294.31;41380714;28;20038;-75
2023/10/04 17:05:20;;;;;;;22.35;4.57;;;;;;;24.21;48.42;101287.09;41381913;28;20070;-75
2023/10/04 17:25:22;;;;;;;19.65;3.92;;;;;;;24.06;48.93;101250.28;41404597;28;20046;-76
2023/10/04 17:45:24;;;;;;;24.73;4.05;;;;;;;24.02;49.57;101280.53;41425230;28;20065;-76
2023/10/04 18:05:32;;;;;;;13.52;3.42;;;;;;;24.17;49.36;101306.81;41440577;28;20052;-76
2023/10/04 18:25:33;;;;;;;12.95;3.50;;;;;;;24.15;50.16;101306.94;41390059;28;20049;-76
2023/10/04 18:45:34;;;;;;;41.80;6.03;;;;;;;24.30;51.44;101307.56;41342847;28;20141;-75
2023/10/04 19:05:36;;;;;;;24.42;3.90;;;;;;;24.16;49.36;101328.94;41307085;28;20050;-74
2023/10/04 19:25:37;;;;;;;15.75;4.03;;;;;;;23.77;49.46;101332.59;41320590;28;20096;-73
2023/10/04 19:45:38;;;;;;;16.77;4.00;;;;;;;23.70;48.66;101344.59;41305614;28;20046;-69
2023/10/04 20:05:39;;;;;;;10.27;3.53;;;;;;;23.87;49.05;101361.88;41322112;28;20042;-68
2023/10/04 20:25:41;;;;;;;13.00;3.65;;;;;;;23.73;50.96;101369.97;41349639;28;20088;-69
2023/10/04 20:45:42;;;;;;;11.38;3.75;;;;;;;23.67;51.50;101366.00;41350572;28;20054;-68
2023/10/04 21:05:43;;;;;;;9.25;3.50;;;;;;;23.59;51.11;101336.59;41329068;28;20050;-68
2023/10/04 21:25:43;;;;;;;6.32;2.90;;;;;;;23.49;50.99;101333.78;41294523;28;20639;-70
2023/10/04 21:45:50;;;;;;;7.18;2.85;;;;;;;23.33;51.16;101304.97;41332339;28;20054;-69
2023/10/04 22:05:55;;;;;;;5.63;2.67;;;;;;;23.33;51.11;101302.34;41318027;28;20076;-69
2023/10/04 22:25:55;;;;;;;;;;;;;;;23.44;51.27;101331.47;41313688;28;20057;-68
2023/10/04 22:45:57;;;;;;;6.53;2.50;;;;;;;23.47;51.14;101317.19;41304284;28;20338;-70
2023/10/04 23:06:02;;;;;;;3.88;2.58;;;;;;;23.38;51.32;101315.22;41299118;28;20295;-69
2023/10/04 23:26:04;;;;;;;3.75;2.28;;;;;;;23.38;51.10;101313.41;41297590;28;20049;-69
2023/10/04 23:46:05;;;;;;;3.65;2.40;;;;;;;23.33;50.50;101316.38;41301613;28;20054;-69
